Crew | Aerofun Virtual



 METAR AND TAF INFORMATION
METAR FOR LEJR
ADDS - METARS form results

(2036 UTC 27 February 2020)
Data provider http://aviationweather.gov/metar/data/
 
METAR text: LEJR 272030Z 33006KT 300V040 CAVOK 13/07 Q1022
Conditions at: LEJR (JEREZ (CIV/MIL) , ES) observed 2030 UTC 27 February 2020
Temperature: 13.0°C (55°F)
Dewpoint: 7.0°C (45°F) [RH = 67%]
Pressure (altimeter): 30.18 inches Hg (1022.0 mb)
Winds: from the NNW (330 degrees) at 7 MPH (6 knots; 3.1 m/s)
Visibility: 6 or more miles (10+ km)
Ceiling: ceiling and visibility are OK
Clouds: unknown
Weather: no significant weather observed at this time

METAR text: LEJR 272000Z 36006KT 300V030 CAVOK 12/06 Q1022
Conditions at: LEJR (JEREZ (CIV/MIL) , ES) observed 2000 UTC 27 February 2020
Temperature: 12.0°C (54°F)
Dewpoint: 6.0°C (43°F) [RH = 67%]
Pressure (altimeter): 30.18 inches Hg (1022.0 mb)
Winds: from the N (360 degrees) at 7 MPH (6 knots; 3.1 m/s)
Visibility: 6 or more miles (10+ km)
Ceiling: ceiling and visibility are OK
Clouds: unknown
Weather: no significant weather observed at this time

Forecast for: LEJR (JEREZ (CIV/MIL) , ES)
Text: TAF LEJR 271700Z 2718/2818 02010KT CAVOK TX24/2815Z TN04/2806Z
Forecast period: 1800 UTC 27 February 2020 to 0300 UTC 28 February 2020
Forecast type: FROM: standard forecast or significant change
Winds: from the NNE (20 degrees) at 12 MPH (10 knots; 5.1 m/s)
Visibility: 6 or more miles 10+ km)
Ceiling: unknown
Clouds: missing
Weather: no significant weather forecast for this period
Text: BECMG 2803/2805 VRB03KT
Forecast period: 0300 to 1000 UTC 28 February 2020
Forecast type: BECOMING: Conditions expected to become as follows by 0500 UTC 28 February 2020
Winds: variable direction winds at 3 MPH (3 knots; 1.5 m/s)
Visibility: 6 or more miles 10+ km)
Ceiling: unknown
Clouds: missing
Weather: no significant weather forecast for this period
Text: BECMG 2810/2812 20010KT
Forecast period: 1000 to 1800 UTC 28 February 2020
Forecast type: BECOMING: Conditions expected to become as follows by 1200 UTC 28 February 2020
Winds: from the SSW (200 degrees) at 12 MPH (10 knots; 5.1 m/s)
Visibility: 6 or more miles 10+ km)
Ceiling: unknown
Clouds: missing
Weather: no significant weather forecast for this period

 AIRPORT MAP

 RUNWAY INFORMATION
Runway 02 Runway length 7546 ft Runway width 148 ft
Runway elevation 68 ft Runway displaced threshold 0 ft Runway heading 21
Runway 20 Runway length 7546 ft Runway width 148 ft
Runway elevation 93 ft Runway displaced threshold 0 ft Runway heading 201

 AIRPORT FREQUENCIES
Type APP Name APP Frequency 128.5 MHZ
Type GND Name GND Frequency 121.6 MHZ
Type TWR Name TWR Frequency 118.55 MHZ

 AIRPORT NEAR NAVIGATION AIDS
Type NDB Name Jerez Frequency 433 KHZ
Type VOR-DME Name Jerez Frequency 113000 KHZ